• Join FlightAware (Why Join?)
  • Login
  • US Flag 
05:45AM EST


 

Airport Tracker/Info


-or-


 

Live Flight TrackerFlight Track Log ✈ TAI570 ✈ 07-May-2013 ✈ MSLP / SAL - KJFK

Flight Track Log - Related Links

Times and Time Zones

All times are in EDT time to prevent confusion due to time zone crossing. See the TAI570 flight status page for this flight to view local times or setup timezone preferences in your user account.

Time Position Orientation Groundspeed Altitude Reporting Facility
EDT Latitude Longitude Course Direction KTS MPH feet Rate Location/Type
05:34PM 13.5290 -89.1440 36° Northeast 255 293 8,200  Level FlightAware
05:35PM 13.5640 -89.1180 36° Northeast 255 293 8,500 1,860 Climbing FlightAware
05:36PM 13.6080 -89.0840 37° Northeast 289 333 10,700 2,100 Climbing FlightAware
05:36PM 13.6600 -89.0460 35° Northeast 324 373 11,500 1,440 Climbing FlightAware
05:37PM 13.7100 -89.0080 36° Northeast 332 382 12,800 1,800 Climbing FlightAware
05:38PM 13.7600 -88.9700 36° Northeast 344 396 13,900 1,680 Climbing FlightAware
05:38PM 13.8200 -88.9250 36° Northeast 356 410 15,200 1,680 Climbing FlightAware
05:39PM 13.8720 -88.8860 36° Northeast 364 419 16,300 1,500 Climbing FlightAware
05:40PM 13.9310 -88.8410 37° Northeast 366 421 17,400 1,380 Climbing FlightAware
05:40PM 13.9870 -88.7990 36° Northeast 382 440 18,300 1,260 Climbing FlightAware
05:41PM 14.0100 -88.7860 29° Northeast 383 441 18,600 1,440 Climbing FlightAware
05:42PM 14.1040 -88.7570 17° North 387 445 20,000 1,500 Climbing FlightAware
05:42PM 14.1650 -88.7380 17° North 390 449 20,900 1,320 Climbing FlightAware
05:43PM 14.2520 -88.7120 16° North 389 448 21,900 1,200 Climbing FlightAware
05:44PM 14.3780 -88.6730 17° North 403 464 23,300 1,260 Climbing FlightAware
05:45PM 14.5030 -88.6350 16° North 399 459 24,900 1,020 Climbing FlightAware
05:46PM 14.6170 -88.5990 17° North 400 460 25,700 480 Climbing FlightAware
05:47PM 14.6830 -88.5790 16° North 402 463 25,800 720 Climbing FlightAware
05:48PM 14.7940 -88.5450 16° North 433 498 26,800 660 Climbing FlightAware
05:49PM 14.8640 -88.5240 16° North 433 498 26,800  Level FlightAware
05:49PM 14.9290 -88.5040 17° North 433 498 26,800  Level FlightAware
05:50PM 14.9950 -88.4850 16° North 433 498 26,800  Level FlightAware
05:51PM 15.0600 -88.4650 17° North 433 498 26,800  Level FlightAware
05:51PM 15.1420 -88.4410 16° North 433 498 26,800 120 Level FlightAware
05:54PM 15.3917 -88.3481 20° North  Level FlightAware Approximate
05:55PM 15.5134 -88.3027 20° North  Level FlightAware Approximate
05:56PM 15.6352 -88.2573 20° North  Level FlightAware Approximate
05:57PM 15.7570 -88.2118 20° North  Level FlightAware Approximate
05:58PM 15.8787 -88.1663 20° North  Level FlightAware Approximate
05:59PM 16.0005 -88.1207 20° North  Level FlightAware Approximate
06:00PM 16.1223 -88.0752 19° North  Level FlightAware Approximate
06:01PM 16.2444 -88.0307 19° North  Level FlightAware Approximate
06:02PM 16.3666 -87.9862 19° North  Level FlightAware Approximate
06:03PM 16.4887 -87.9416 19° North  Level FlightAware Approximate
06:04PM 16.6108 -87.8969 19° North  Level FlightAware Approximate
06:05PM 16.7329 -87.8522 19° North  Level FlightAware Approximate
06:06PM 16.8550 -87.8074 19° North  Level FlightAware Approximate
06:07PM 16.9771 -87.7626 19° North  Level FlightAware Approximate
06:08PM 17.0991 -87.7177 19° North  Level FlightAware Approximate
06:09PM 17.2212 -87.6728 19° North  Level FlightAware Approximate
06:10PM 17.3432 -87.6277 19° North  Level FlightAware Approximate
06:11PM 17.4653 -87.5827 19° North  Level FlightAware Approximate
06:12PM 17.5873 -87.5376 19° North  Level FlightAware Approximate
06:13PM 17.7093 -87.4924 19° North  Level FlightAware Approximate
06:14PM 17.8313 -87.4471 19° North  Level FlightAware Approximate
06:15PM 17.9533 -87.4018 19° North  Level FlightAware Approximate
06:16PM 18.0753 -87.3564 19° North  Level FlightAware Approximate
06:17PM 18.1973 -87.3110 19° North  Level FlightAware Approximate
06:18PM 18.3193 -87.2655 20° North  Level FlightAware Approximate
06:19PM 18.4412 -87.2199 20° North  Level FlightAware Approximate
06:20PM 18.5631 -87.1743 20° North  Level FlightAware Approximate
06:21PM 18.6851 -87.1286 20° North  Level FlightAware Approximate
06:22PM 18.8070 -87.0828 20° North  Level FlightAware Approximate
06:23PM 18.9291 -87.0376 19° North  Level FlightAware Approximate
06:24PM 19.0512 -86.9925 19° North  Level FlightAware Approximate
06:25PM 19.1734 -86.9474 19° North  Level FlightAware Approximate
06:26PM 19.2956 -86.9022 19° North  Level FlightAware Approximate
06:27PM 19.4177 -86.8569 19° North  Level FlightAware Approximate
06:28PM 19.5398 -86.8116 19° North  Level FlightAware Approximate
06:29PM 19.6619 -86.7662 19° North  Level FlightAware Approximate
06:30PM 19.7841 -86.7207 19° North  Level FlightAware Approximate
06:31PM 19.9062 -86.6752 19° North  Level FlightAware Approximate
06:32PM 20.0282 -86.6296 19° North  Level FlightAware Approximate
06:33PM 20.1503 -86.5839 19° North  Level FlightAware Approximate
06:34PM 20.2724 -86.5381 19° North  Level FlightAware Approximate
06:35PM 20.3896 -86.4790 25° Northeast  Level Estimated
06:36PM 20.5067 -86.4198 25° Northeast  Level Estimated
06:37PM 20.6239 -86.3606 25° Northeast  Level Estimated
06:38PM 20.7410 -86.3012 25° Northeast  Level Estimated
06:39PM 20.8581 -86.2417 25° Northeast  Level Estimated
06:40PM 20.9752 -86.1822 25° Northeast  Level Estimated
06:40PM 21.5590 -86.7370 25° Northeast 486 559 35,000  Level FlightAware
06:40PM 21.6450 -86.7170 12° North 489 563 35,000  Level FlightAware
06:41PM 21.0922 -86.1225 25° Northeast  Level Estimated
06:41PM 21.7360 -86.6970 12° North 490 564 35,000  Level FlightAware
06:42PM 21.8370 -86.6730 12° North 488 562 35,100 60 Climbing FlightAware
06:43PM 21.9340 -86.6510 12° North 485 558 35,100 -120 Level FlightAware
06:43PM 22.0220 -86.6310 12° North 481 554 35,000 -120 Descending FlightAware
06:44PM 22.1100 -86.6100 12° North 480 552 35,000  Level FlightAware
06:45PM 22.2060 -86.5880 12° North 480 552 35,000  Level FlightAware
06:45PM 22.2960 -86.5670 12° North 481 554 35,000  Level FlightAware
06:46PM 22.3840 -86.5470 12° North 483 556 35,000  Level FlightAware
06:47PM 22.4820 -86.5240 12° North 485 558 35,000  Level FlightAware
06:47PM 22.5690 -86.5040 12° North 488 562 35,000  Level FlightAware
06:48PM 22.6720 -86.4800 12° North 489 563 35,000  Level FlightAware
06:49PM 22.7610 -86.4600 12° North 490 564 35,000  Level FlightAware
06:50PM 22.8490 -86.4390 12° North 490 564 35,000  Level FlightAware
06:50PM 22.9460 -86.4160 12° North 489 563 35,000  Level FlightAware
06:51PM 23.0350 -86.3960 12° North 487 560 35,000  Level FlightAware
06:52PM 23.1330 -86.3730 12° North 484 557 35,000  Level FlightAware
06:52PM 23.2240 -86.3510 13° North 481 554 35,000  Level FlightAware
06:53PM 23.3070 -86.3320 12° North 479 551 35,000  Level FlightAware
06:54PM 23.4060 -86.3090 12° North 477 549 35,000  Level FlightAware
06:54PM 23.4940 -86.2880 12° North 475 547 35,000  Level FlightAware
06:55PM 23.5920 -86.2640 13° North 474 545 35,000  Level FlightAware
06:56PM 23.6760 -86.2450 12° North 472 543 35,000  Level FlightAware
06:57PM 23.7620 -86.2240 13° North 471 542 35,000  Level FlightAware
06:57PM 23.8570 -86.2020 12° North 471 542 35,000  Level FlightAware
06:58PM 23.9440 -86.1810 12° North 471 542 35,000  Level FlightAware
06:59PM 24.0410 -86.1500 16° North 479 551 35,000  Level FlightAware
06:59PM 24.1200 -86.1090 25° Northeast 487 560 35,000  Level FlightAware
07:00PM 24.2000 -86.0590 30° Northeast 489 563 35,000  Level FlightAware
07:01PM 24.2870 -86.0060 29° Northeast 489 563 35,000  Level FlightAware
07:01PM 24.3500 -85.9670 29° Northeast 489 563 35,000  Level FlightAware
07:02PM 24.4560 -85.9010 30° Northeast 490 564 35,000  Level FlightAware
07:03PM 24.5260 -85.8580 29° Northeast 489 563 35,000  Level FlightAware
07:04PM 24.5940 -85.8170 29° Northeast 489 563 35,000  Level FlightAware
07:04PM 24.6610 -85.7760 29° Northeast 489 563 35,000  Level FlightAware
07:05PM 24.7280 -85.7340 30° Northeast 489 563 35,000  Level FlightAware
07:06PM 24.8120 -85.6830 29° Northeast 489 563 35,000  Level FlightAware
07:06PM 24.8800 -85.6420 29° Northeast 489 563 35,000  Level FlightAware
07:07PM 24.9470 -85.6010 29° Northeast 489 563 35,000  Level FlightAware
07:08PM 25.0140 -85.5600 29° Northeast 489 563 35,000  Level FlightAware
07:08PM 25.0820 -85.5190 29° Northeast 489 563 35,000  Level FlightAware
07:09PM 25.1490 -85.4770 30° Northeast 489 563 35,000  Level FlightAware
07:10PM 25.2330 -85.4260 29° Northeast 489 563 35,000  Level FlightAware
07:11PM 25.3000 -85.3850 29° Northeast 489 563 35,000  Level FlightAware
07:11PM 25.3670 -85.3430 30° Northeast 489 563 35,000  Level FlightAware
07:12PM 25.4350 -85.3020 29° Northeast 489 563 35,000 -120 Level FlightAware
07:12PM 25.6800 -85.2503 29° Northeast 495 570 34,900  Descending Houston Center
07:13PM 25.7917 -85.1778 30° Northeast 484 557 35,000  Climbing Miami Center
07:14PM 25.9014 -85.0817 38° Northeast 484 557 34,900 -60 Descending Miami Center
07:15PM 26.0189 -84.9928 34° Northeast 494 568 34,900  Level Miami Center
07:16PM 26.1364 -84.9061 34° Northeast 499 574 35,000  Climbing Miami Center
07:17PM 26.2497 -84.8144 36° Northeast 500 575 34,900  Descending Miami Center
07:18PM 26.3631 -84.7225 36° Northeast 500 575 35,000  Climbing Miami Center
07:19PM 26.4806 -84.6353 34° Northeast 500 575 35,000  Level Miami Center
07:20PM 26.5958 -84.5433 35° Northeast 500 575 35,000 -60 Level Miami Center
07:21PM 26.7131 -84.4558 34° Northeast 500 575 34,900  Descending Miami Center
07:27PM 27.3580 -83.9400 34° Northeast 491 565 35,000  Climbing FlightAware
07:28PM 27.4420 -83.8740 35° Northeast 489 563 35,000  Level FlightAware
07:28PM 27.5160 -83.8140 36° Northeast 491 565 35,000  Level FlightAware
07:29PM 27.5920 -83.7530 35° Northeast 492 566 35,000  Level FlightAware
07:30PM 27.6750 -83.6870 35° Northeast 495 570 35,000  Level FlightAware
07:30PM 27.7490 -83.6280 35° Northeast 495 570 35,000  Level FlightAware
07:31PM 27.8240 -83.5660 36° Northeast 495 570 35,000  Level FlightAware
07:32PM 27.9070 -83.5000 35° Northeast 498 573 35,000  Level FlightAware
07:32PM 27.9860 -83.4440 32° Northeast 493 567 35,000  Level FlightAware
07:33PM 28.0790 -83.3980 24° Northeast 478 550 35,000  Level FlightAware
07:34PM 28.1620 -83.3690 17° North 473 544 35,000  Level FlightAware
07:35PM 28.2500 -83.3390 17° North 473 544 35,000  Level FlightAware
07:35PM 28.3450 -83.3060 17° North 474 545 35,000  Level FlightAware
07:36PM 28.4320 -83.2770 16° North 483 556 35,000  Level FlightAware
07:37PM 28.5270 -83.2440 17° North 484 557 35,000  Level FlightAware
07:37PM 28.6140 -83.2140 17° North 483 556 35,000  Level FlightAware
07:38PM 28.7000 -83.1850 16° North 475 547 35,000  Level FlightAware
07:39PM 28.7950 -83.1520 17° North 475 547 35,000  Level FlightAware
07:39PM 28.8820 -83.1220 17° North 474 545 35,000  Level FlightAware
07:40PM 28.9790 -83.0890 17° North 471 542 35,000  Level FlightAware
07:41PM 29.0950 -83.0490 17° North 469 540 35,000  Level FlightAware
07:42PM 29.1700 -83.0230 17° North 469 540 35,000  Level FlightAware
07:42PM 29.2470 -82.9960 17° North 470 541 35,000  Level FlightAware
07:43PM 29.3730 -82.9520 17° North 474 545 35,000  Level FlightAware
07:44PM 29.4790 -82.9150 17° North 484 557 35,000  Level FlightAware
07:45PM 29.5670 -82.8840 17° North 484 557 35,000  Level FlightAware
07:46PM 29.7610 -82.8160 17° North 473 544 35,000  Level FlightAware
07:47PM 29.8710 -82.7780 17° North 475 547 35,000  Level FlightAware
07:48PM 29.9550 -82.7480 17° North 484 557 35,000  Level FlightAware
07:49PM 30.0440 -82.7170 17° North 484 557 35,000  Level FlightAware
07:49PM 30.1170 -82.6910 17° North 484 557 35,000  Level FlightAware
07:50PM 30.2500 -82.6440 17° North 486 559 35,000  Level FlightAware
07:51PM 30.3340 -82.6140 17° North 486 559 35,000  Level FlightAware
07:52PM 30.4070 -82.5880 17° North 486 559 35,000  Level FlightAware
07:52PM 30.4800 -82.5620 17° North 486 559 35,000  Level FlightAware
07:53PM 30.5710 -82.5300 17° North 486 559 35,000  Level FlightAware
07:54PM 30.6450 -82.5040 17° North 486 559 35,000  Level FlightAware
07:54PM 30.7180 -82.4780 17° North 486 559 35,000  Level FlightAware
07:55PM 30.7910 -82.4520 17° North 486 559 35,000  Level FlightAware
07:56PM 30.8640 -82.4260 17° North 486 559 35,000  Level FlightAware
07:57PM 30.9550 -82.3930 17° North 486 559 35,000  Level FlightAware
07:57PM 31.0280 -82.3670 17° North 486 559 35,000  Level FlightAware
07:58PM 31.1010 -82.3410 17° North 486 559 35,000  Level FlightAware
07:59PM 31.1750 -82.3150 17° North 486 559 35,000  Level FlightAware
07:59PM 31.2480 -82.2890 17° North 486 559 35,000  Level FlightAware
08:00PM 31.3210 -82.2630 17° North 486 559 35,000  Level FlightAware
08:01PM 31.4780 -81.5510 75° East 518 596 35,000  Level FlightAware
08:02PM 31.5740 -81.4500 42° Northeast 515 593 35,000  Level FlightAware
08:03PM 31.6420 -81.3790 42° Northeast 514 592 35,000  Level FlightAware
08:03PM 31.7030 -81.3150 42° Northeast 516 594 35,000  Level FlightAware
08:04PM 31.7750 -81.2410 41° Northeast 516 594 35,000  Level FlightAware
08:05PM 31.8650 -81.1440 42° Northeast 516 594 35,000  Level FlightAware
08:06PM 31.9440 -81.0610 42° Northeast 514 592 35,000  Level FlightAware
08:06PM 32.0080 -80.9930 42° Northeast 512 589 35,000  Level FlightAware
08:07PM 32.0910 -80.9040 42° Northeast 510 587 35,000  Level FlightAware
08:08PM 32.1580 -80.8330 42° Northeast 511 588 35,000  Level FlightAware
08:08PM 32.2430 -80.7430 42° Northeast 515 593 35,000  Level FlightAware
08:10PM 32.3780 -80.5980 42° Northeast 517 595 35,000  Level FlightAware
08:11PM 32.4460 -80.5260 42° Northeast 517 595 35,000  Level FlightAware
08:11PM 32.5500 -80.4120 43° Northeast 522 601 35,000  Level FlightAware
08:12PM 32.6090 -80.3490 42° Northeast 522 601 35,000  Level FlightAware
08:13PM 32.6880 -80.2630 42° Northeast 523 602 35,000  Level FlightAware
08:13PM 32.7730 -80.1710 42° Northeast 523 602 35,000  Level FlightAware
08:14PM 32.8340 -80.1040 43° Northeast 524 603 35,000  Level FlightAware
08:15PM 32.9250 -80.0080 42° Northeast 522 601 35,000  Level FlightAware
08:15PM 33.0010 -79.9360 38° Northeast 520 598 35,000  Level FlightAware
08:16PM 33.0740 -79.8650 39° Northeast 520 598 35,000  Level FlightAware
08:17PM 33.1590 -79.7820 39° Northeast 521 600 35,000  Level FlightAware
08:18PM 33.2330 -79.7100 39° Northeast 522 601 35,000  Level FlightAware
08:18PM 33.3080 -79.6380 39° Northeast 521 600 35,000  Level FlightAware
08:19PM 33.3920 -79.5550 40° Northeast 521 600 35,000  Level FlightAware
08:20PM 33.4640 -79.4850 39° Northeast 520 598 35,000  Level FlightAware
08:20PM 33.5500 -79.4010 39° Northeast 521 600 35,000  Level FlightAware
08:21PM 33.6270 -79.3250 39° Northeast 520 598 35,000  Level FlightAware
08:22PM 33.7020 -79.2510 39° Northeast 520 598 35,000  Level FlightAware
08:22PM 33.7850 -79.1690 39° Northeast 522 601 35,000  Level FlightAware
08:23PM 33.8610 -79.0940 39° Northeast 523 602 35,000  Level FlightAware
08:24PM 33.9420 -79.0130 40° Northeast 523 602 35,000  Level FlightAware
08:25PM 34.0180 -78.9380 39° Northeast 524 603 35,000  Level FlightAware
08:25PM 34.1020 -78.8540 40° Northeast 524 603 35,000  Level FlightAware
08:26PM 34.1710 -78.7850 40° Northeast 523 602 35,000  Level FlightAware
08:27PM 34.2500 -78.7060 40° Northeast 521 600 35,000  Level FlightAware
08:27PM 34.3280 -78.6270 40° Northeast 520 598 35,000  Level FlightAware
08:28PM 34.4000 -78.5540 40° Northeast 519 597 35,000  Level FlightAware
08:29PM 34.5610 -78.4190 35° Northeast 513 590 35,000  Level FlightAware
08:30PM 34.6330 -78.3610 34° Northeast 511 588 35,000  Level FlightAware
08:30PM 34.4410 -78.5150 213° Southwest 35,000  Level FlightAware
08:31PM 34.7560 -78.2620 33° Northeast 507 583 35,000  Level FlightAware
08:32PM 34.8290 -78.2040 33° Northeast 505 581 35,000  Level FlightAware
08:32PM 34.9050 -78.1430 33° Northeast 505 581 35,000  Level FlightAware
08:33PM 34.9720 -78.0910 32° Northeast 505 581 35,000  Level FlightAware
08:34PM 35.0550 -78.0250 33° Northeast 505 581 35,000  Level FlightAware
08:35PM 35.1220 -77.9720 33° Northeast 505 581 35,000  Level FlightAware
08:35PM 35.1890 -77.9190 33° Northeast 505 581 35,000  Level FlightAware
08:36PM 35.2550 -77.8660 33° Northeast 505 581 35,000  Level FlightAware
08:37PM 35.3380 -77.8000 33° Northeast 505 581 35,000  Level FlightAware
08:37PM 35.4050 -77.7470 33° Northeast 505 581 35,000  Level FlightAware
08:38PM 35.4720 -77.6930 33° Northeast 505 581 35,000  Level FlightAware
08:39PM 35.5380 -77.6400 33° Northeast 505 581 35,000  Level FlightAware
08:39PM 35.7350 -77.4630 36° Northeast 498 573 35,000  Level FlightAware
08:40PM 35.8210 -77.3910 34° Northeast 498 573 35,000  Level FlightAware
08:41PM 35.8990 -77.3270 34° Northeast 497 572 35,000  Level FlightAware
08:42PM 35.9740 -77.2640 34° Northeast 498 573 35,000  Level FlightAware
08:42PM 36.0420 -77.2070 34° Northeast 498 573 35,000  Level FlightAware
08:43PM 36.1070 -77.1530 34° Northeast 498 573 35,000  Level FlightAware
08:44PM 36.1880 -77.0850 34° Northeast 498 573 35,000  Level FlightAware
08:44PM 36.2530 -77.0310 34° Northeast 498 573 35,000  Level FlightAware
08:45PM 36.3180 -76.9760 34° Northeast 498 573 35,000  Level FlightAware
08:46PM 36.4540 -76.8600 34° Northeast 489 563 35,000  Level FlightAware
08:47PM 36.5500 -76.7780 34° Northeast 489 563 35,000  Level FlightAware
08:47PM 36.6270 -76.7120 35° Northeast 489 563 35,000  Level FlightAware
08:48PM 36.7070 -76.6440 34° Northeast 489 563 35,000  Level FlightAware
08:49PM 36.7940 -76.5700 34° Northeast 486 559 35,000 60 Level FlightAware
08:49PM 36.8660 -76.5090 34° Northeast 490 564 35,100  Climbing FlightAware
08:50PM 36.9480 -76.4370 35° Northeast 489 563 35,000 -180 Descending FlightAware
08:51PM 37.0250 -76.3710 34° Northeast 489 563 34,900  Descending FlightAware
08:52PM 37.1240 -76.2854 35° Northeast 486 559 35,000 60 Climbing FlightAware ADS-B
08:52PM 37.1801 -76.2368 35° Northeast 486 559 35,000  Level FlightAware ADS-B
08:53PM 37.2388 -76.1859 35° Northeast 487 560 35,000  Level FlightAware ADS-B
08:53PM 37.2963 -76.1359 35° Northeast 489 563 35,000 360 Level FlightAware ADS-B
08:54PM 37.3550 -76.0848 35° Northeast 490 564 35,400 720 Climbing FlightAware ADS-B
08:54PM 37.4119 -76.0350 35° Northeast 490 564 35,800 960 Climbing FlightAware ADS-B
08:55PM 37.4689 -75.9848 35° Northeast 483 556 36,400 1,140 Climbing FlightAware ADS-B
08:55PM 37.5180 -75.9420 35° Northeast 475 547 37,000 420 Climbing FlightAware
08:56PM 37.5970 -75.8720 35° Northeast 470 541 37,000  Level FlightAware
08:57PM 37.6660 -75.8110 35° Northeast 470 541 37,000  Level FlightAware
08:57PM 37.7133 -75.7696 35° Northeast 480 552 37,000  Level FlightAware ADS-B
08:58PM 37.7683 -75.7209 35° Northeast 482 555 37,000  Level FlightAware ADS-B
08:58PM 37.8232 -75.6723 35° Northeast 485 558 37,000 60 Level FlightAware ADS-B
08:59PM 37.9260 -75.5810 35° Northeast 478 550 37,100  Climbing FlightAware
09:00PM 38.0080 -75.5080 35° Northeast 475 547 37,000 -120 Descending FlightAware
09:00PM 38.0723 -75.4556 33° Northeast 473 544 37,000  Level FlightAware ADS-B
09:01PM 38.1022 -75.4357 28° Northeast 476 548 37,000  Level FlightAware ADS-B
09:01PM 38.1656 -75.3956 26° Northeast 483 556 37,000  Level FlightAware ADS-B
09:02PM 38.2580 -75.3370 26° Northeast 487 560 37,000  Level FlightAware
09:02PM 38.2796 -75.3234 26° Northeast 485 558 37,000  Level FlightAware ADS-B
09:03PM 38.3417 -75.2844 26° Northeast 481 554 37,000  Level FlightAware ADS-B
09:03PM 38.4080 -75.2424 26° Northeast 483 556 37,000  Level FlightAware ADS-B
09:04PM 38.5076 -75.1789 27° Northeast 483 556 37,000  Level FlightAware ADS-B
09:04PM 38.5714 -75.1382 27° Northeast 483 556 37,000  Level FlightAware ADS-B
09:05PM 38.6330 -75.0989 26° Northeast 481 554 37,000  Level FlightAware ADS-B
09:06PM 38.7053 -75.0525 27° Northeast 479 551 37,000  Level FlightAware ADS-B
09:06PM 38.7652 -75.0142 26° Northeast 479 551 37,000 -120 Level FlightAware ADS-B
09:07PM 38.8269 -74.9743 27° Northeast 479 551 36,900 -660 Descending FlightAware ADS-B
09:07PM 38.8969 -74.9291 27° Northeast 479 551 36,300 -1,500 Descending FlightAware ADS-B
09:08PM 38.9571 -74.8902 27° Northeast 473 544 35,300 -2,040 Descending FlightAware ADS-B
09:08PM 39.0168 -74.8516 27° Northeast 466 536 34,200 -2,220 Descending FlightAware ADS-B
09:09PM 39.0739 -74.8148 27° Northeast 462 532 33,100 -2,280 Descending FlightAware ADS-B
09:09PM 39.1101 -74.7855 32° Northeast 453 521 32,300 -2,760 Descending FlightAware ADS-B
09:10PM 39.1587 -74.7326 40° Northeast 455 524 30,800 -3,180 Descending FlightAware ADS-B
09:10PM 39.2329 -74.6525 40° Northeast 460 529 28,300 -3,420 Descending FlightAware ADS-B
09:11PM 39.2884 -74.5927 40° Northeast 472 543 26,300 -3,240 Descending FlightAware ADS-B
09:11PM 39.3388 -74.5382 40° Northeast 470 541 24,900 -2,760 Descending FlightAware ADS-B
09:12PM 39.3905 -74.4822 40° Northeast 466 536 23,500 -2,760 Descending FlightAware ADS-B
09:12PM 39.4412 -74.4268 40° Northeast 464 534 22,100 -2,820 Descending FlightAware ADS-B
09:13PM 39.5037 -74.3585 40° Northeast 460 529 20,300 -2,820 Descending FlightAware ADS-B
09:14PM 39.5538 -74.3037 40° Northeast 458 527 18,900 -2,400 Descending FlightAware ADS-B
09:14PM 39.6020 -74.2508 40° Northeast 441 507 17,900 -1,500 Descending FlightAware ADS-B
09:15PM 39.6521 -74.1959 40° Northeast 404 465 17,300 -1,680 Descending FlightAware ADS-B
09:15PM 39.6940 -74.1497 40° Northeast 381 438 16,100 -2,520 Descending FlightAware ADS-B
09:16PM 39.7370 -74.1019 41° Northeast 374 430 14,700 -2,040 Descending FlightAware ADS-B
09:16PM 39.7786 -74.0558 40° Northeast 377 434 14,000 -2,040 Descending FlightAware ADS-B
09:17PM 39.8232 -74.0064 40° Northeast 366 421 12,500 -2,520 Descending FlightAware ADS-B
09:17PM 39.8440 -73.9852 38° Northeast 368 423 11,900 -1,620 Descending FlightAware ADS-B
09:17PM 39.8706 -73.9656 29° Northeast 359 413 11,600 -960 Descending FlightAware ADS-B
09:18PM 39.9160 -73.9339 28° Northeast 340 391 11,100 -720 Descending FlightAware ADS-B
09:18PM 39.9624 -73.9009 29° Northeast 313 360 10,800 -300 Descending FlightAware ADS-B
09:19PM 40.0000 -73.8740 29° Northeast 308 354 10,800  Level FlightAware ADS-B
09:19PM 40.0381 -73.8467 29° Northeast 309 356 10,800  Level FlightAware ADS-B
09:20PM 40.0604 -73.8294 31° Northeast 309 356 10,800  Level FlightAware ADS-B
09:20PM 40.0992 -73.7957 34° Northeast 308 354 10,800 -780 Level FlightAware ADS-B
09:21PM 40.1359 -73.7635 34° Northeast 304 350 10,000 -1,800 Descending FlightAware ADS-B
09:21PM 40.1590 -73.7434 34° Northeast 304 350 9,300 -2,040 Descending FlightAware ADS-B
09:21PM 40.1774 -73.7276 33° Northeast 300 345 8,800 -2,100 Descending FlightAware ADS-B
09:22PM 40.1964 -73.7111 34° Northeast 297 342 8,200 -1,920 Descending FlightAware ADS-B
09:22PM 40.2029 -73.7068 27° Northeast 296 341 8,100 -2,040 Descending FlightAware ADS-B
09:22PM 40.2078 -73.7045 20° North 298 343 7,900 -2,400 Descending FlightAware ADS-B
09:22PM 40.2162 -73.7021 12° North 298 343 7,700 -1,860 Descending FlightAware ADS-B
09:22PM 40.2253 -73.7018 North 299 344 7,500 -2,160 Descending FlightAware ADS-B
09:22PM 40.2497 -73.7130 341° North 302 348 6,800 -2,400 Descending FlightAware ADS-B
09:22PM 40.2564 -73.7201 321° Northwest 302 348 6,500 -2,340 Descending FlightAware ADS-B
09:23PM 40.2627 -73.7300 310° West 300 345 6,300 -1,920 Descending FlightAware ADS-B
09:23PM 40.2698 -73.7493 296° West 295 339 5,900 -1,620 Descending FlightAware ADS-B
09:23PM 40.2729 -73.7601 291° West 290 334 5,800 -840 Descending FlightAware ADS-B
09:23PM 40.2793 -73.7843 289° West 285 328 5,600 -900 Descending FlightAware ADS-B
09:23PM 40.2868 -73.8136 289° West 264 304 5,300 -900 Descending FlightAware ADS-B
09:24PM 40.2931 -73.8376 289° West 253 291 5,100 -960 Descending FlightAware ADS-B
09:24PM 40.2997 -73.8621 289° West 250 288 4,800 -1,080 Descending FlightAware ADS-B
09:24PM 40.3060 -73.8852 290° West 248 285 4,500 -1,140 Descending FlightAware ADS-B
09:25PM 40.3136 -73.9143 289° West 246 283 4,100 -1,020 Descending FlightAware ADS-B
09:25PM 40.3192 -73.9360 289° West 243 280 3,900 -600 Descending FlightAware ADS-B
09:25PM 40.3244 -73.9568 288° West 239 275 3,800 -240 Descending FlightAware ADS-B
09:25PM 40.3299 -73.9788 288° West 245 282 3,800  Level FlightAware ADS-B
09:25PM 40.3317 -73.9842 294° West 245 282 3,800  Level FlightAware ADS-B
09:26PM 40.3337 -73.9891 298° West 246 283 3,800 -780 Level FlightAware ADS-B
09:26PM 40.3369 -73.9945 308° West 246 283 3,700 -780 Descending FlightAware ADS-B
09:26PM 40.3395 -73.9980 314° West 245 282 3,700 -1,020 Level FlightAware ADS-B
09:26PM 40.3421 -74.0008 321° Northwest 243 280 3,600 -900 Descending FlightAware ADS-B
09:26PM 40.3452 -74.0035 326° Northwest 241 277 3,600 -600 Level FlightAware ADS-B
09:26PM 40.3524 -74.0077 336° Northwest 237 273 3,500 -1,140 Descending FlightAware ADS-B
09:26PM 40.3683 -74.0140 343° North 234 269 3,200 -1,200 Descending FlightAware ADS-B
09:26PM 40.3783 -74.0174 345° North 233 268 3,000 -960 Descending FlightAware ADS-B
09:27PM 40.3959 -74.0225 348° North 229 264 2,800 -360 Descending FlightAware ADS-B
09:27PM 40.4147 -74.0278 348° North 235 270 2,800  Level FlightAware ADS-B
09:27PM 40.4313 -74.0327 347° North 235 270 2,800  Level FlightAware ADS-B
09:27PM 40.4491 -74.0380 347° North 227 261 2,800  Level FlightAware ADS-B
09:28PM 40.4642 -74.0426 347° North 210 242 2,800  Level FlightAware ADS-B
09:29PM 40.5034 -74.0407 North 210 242 2,800  Level FlightAware ADS-B
09:29PM 40.5065 -74.0339 59° Northeast 150 173 2,800  Level FlightAware ADS-B
09:29PM 40.5170 -73.9970 69° East 148 170 2,800  Level FlightAware
09:30PM 40.5240 -73.9750 67° East 148 170 2,800 -180 Level FlightAware
09:30PM 40.5310 -73.9610 57° Northeast 160 184 2,700 -720 Descending FlightAware
09:31PM 40.5470 -73.9480 32° Northeast 155 178 2,300 -900 Descending FlightAware
09:31PM 40.5650 -73.9340 31° Northeast 156 180 1,900 -900 Descending FlightAware
09:32PM 40.5810 -73.9200 34° Northeast 150 173 1,500 -780 Descending FlightAware
09:32PM 40.5952 -73.9088 31° Northeast 147 169 1,300 -240 Descending FlightAware ADS-B
09:33PM 40.6140 -73.8930 33° Northeast 143 165 1,300 -240 Level FlightAware
09:33PM 40.6280 -73.8820 31° Northeast 144 166 1,100 -480 Descending FlightAware
09:33PM 40.6380 -73.8750 28° Northeast 142 163 1,000 -480 Descending FlightAware
09:34PM 40.6510 -73.8640 33° Northeast 137 158 800 -420 Descending FlightAware
09:34PM 40.6590 -73.8520 49° Northeast 132 152 700 -420 Descending FlightAware
09:34PM 40.6650 -73.8330 67° East 133 153 500 -600 Descending FlightAware
09:35PM 40.6660 -73.8210 84° East 134 154 300 -600 Descending FlightAware
09:35PM 40.6650 -73.8080 96° East 134 154 200 -420 Descending FlightAware
09:35PM 40.6580 -73.7920 120° Southeast 135 155 -480 Descending FlightAware